sensor_id;sensor_type;location;lat;lon;timestamp;P1;durP1;ratioP1;P2;durP2;ratioP2
3949;SDS011;53057;50.988;6.314;2023-10-13T01:55:01;25.20;;;15.40;;
3949;SDS011;53057;50.988;6.314;2023-10-13T02:11:10;35.57;;;18.83;;
3949;SDS011;53057;50.988;6.314;2023-10-13T02:14:40;34.77;;;16.53;;
3949;SDS011;53057;50.988;6.314;2023-10-13T02:17:25;27.43;;;16.40;;
3949;SDS011;53057;50.988;6.314;2023-10-13T02:19:54;32.27;;;17.03;;
3949;SDS011;53057;50.988;6.314;2023-10-13T02:22:31;45.77;;;18.47;;
3949;SDS011;53057;50.988;6.314;2023-10-13T02:25:03;29.67;;;17.90;;
3949;SDS011;53057;50.988;6.314;2023-10-13T02:27:46;27.53;;;17.23;;
3949;SDS011;53057;50.988;6.314;2023-10-13T02:30:36;33.10;;;14.73;;
3949;SDS011;53057;50.988;6.314;2023-10-13T02:33:12;25.40;;;16.30;;
3949;SDS011;53057;50.988;6.314;2023-10-13T02:35:40;25.53;;;15.40;;
3949;SDS011;53057;50.988;6.314;2023-10-13T02:38:10;32.93;;;17.40;;
3949;SDS011;53057;50.988;6.314;2023-10-13T02:40:40;28.17;;;17.60;;
3949;SDS011;53057;50.988;6.314;2023-10-13T02:43:09;28.97;;;16.73;;
3949;SDS011;53057;50.988;6.314;2023-10-13T02:45:37;24.20;;;15.27;;
3949;SDS011;53057;50.988;6.314;2023-10-13T02:48:05;27.10;;;15.40;;
3949;SDS011;53057;50.988;6.314;2023-10-13T02:50:54;22.20;;;14.00;;
3949;SDS011;53057;50.988;6.314;2023-10-13T02:53:28;35.33;;;17.10;;
3949;SDS011;53057;50.988;6.314;2023-10-13T02:56:38;28.03;;;13.50;;
3949;SDS011;53057;50.988;6.314;2023-10-13T02:59:26;22.30;;;13.30;;
3949;SDS011;53057;50.988;6.314;2023-10-13T03:03:24;29.57;;;13.57;;
3949;SDS011;53057;50.988;6.314;2023-10-13T03:06:05;25.23;;;14.70;;
3949;SDS011;53057;50.988;6.314;2023-10-13T03:09:22;19.33;;;13.33;;
3949;SDS011;53057;50.988;6.314;2023-10-13T03:12:04;18.10;;;12.40;;
3949;SDS011;53057;50.988;6.314;2023-10-13T03:21:42;18.30;;;12.50;;
3949;SDS011;53057;50.988;6.314;2023-10-13T03:24:23;16.03;;;10.97;;
3949;SDS011;53057;50.988;6.314;2023-10-13T03:27:01;27.30;;;13.50;;
3949;SDS011;53057;50.988;6.314;2023-10-13T03:29:47;22.87;;;11.83;;
3949;SDS011;53057;50.988;6.314;2023-10-13T03:32:47;28.17;;;13.13;;
3949;SDS011;53057;50.988;6.314;2023-10-13T03:35:23;21.23;;;10.90;;
3949;SDS011;53057;50.988;6.314;2023-10-13T03:38:25;20.93;;;13.40;;
3949;SDS011;53057;50.988;6.314;2023-10-13T03:41:40;21.90;;;12.93;;
3949;SDS011;53057;50.988;6.314;2023-10-13T03:44:12;21.47;;;9.40;;
3949;SDS011;53057;50.988;6.314;2023-10-13T03:46:52;18.03;;;9.80;;
3949;SDS011;53057;50.988;6.314;2023-10-13T03:49:50;18.03;;;11.13;;
3949;SDS011;53057;50.988;6.314;2023-10-13T03:52:26;18.93;;;10.23;;
3949;SDS011;53057;50.988;6.314;2023-10-13T03:55:12;14.77;;;9.53;;
3949;SDS011;53057;50.988;6.314;2023-10-13T03:57:56;20.53;;;10.20;;
3949;SDS011;53057;50.988;6.314;2023-10-13T04:11:27;32.57;;;10.97;;
3949;SDS011;53057;50.988;6.314;2023-10-13T04:17:50;11.30;;;7.53;;
3949;SDS011;53057;50.988;6.314;2023-10-13T04:20:35;17.40;;;9.87;;
3949;SDS011;53057;50.988;6.314;2023-10-13T04:23:10;15.83;;;10.23;;
3949;SDS011;53057;50.988;6.314;2023-10-13T04:26:04;18.77;;;10.10;;
3949;SDS011;53057;50.988;6.314;2023-10-13T04:28:36;22.00;;;9.20;;
3949;SDS011;53057;50.988;6.314;2023-10-13T04:31:25;19.70;;;9.20;;
3949;SDS011;53057;50.988;6.314;2023-10-13T04:34:42;20.73;;;10.60;;
3949;SDS011;53057;50.988;6.314;2023-10-13T04:43:54;31.83;;;10.37;;
3949;SDS011;53057;50.988;6.314;2023-10-13T04:49:50;13.10;;;8.70;;
3949;SDS011;53057;50.988;6.314;2023-10-13T05:00:45;12.63;;;8.10;;
3949;SDS011;53057;50.988;6.314;2023-10-13T05:11:46;13.03;;;7.30;;
3949;SDS011;53057;50.988;6.314;2023-10-13T05:14:57;23.13;;;7.83;;
3949;SDS011;53057;50.988;6.314;2023-10-13T05:18:03;18.70;;;8.10;;
3949;SDS011;53057;50.988;6.314;2023-10-13T05:21:00;18.37;;;7.97;;
3949;SDS011;53057;50.988;6.314;2023-10-13T05:25:06;9.03;;;4.90;;
3949;SDS011;53057;50.988;6.314;2023-10-13T05:32:22;21.63;;;9.20;;
3949;SDS011;53057;50.988;6.314;2023-10-13T05:40:34;15.17;;;7.83;;
3949;SDS011;53057;50.988;6.314;2023-10-13T05:47:48;29.43;;;10.67;;
3949;SDS011;53057;50.988;6.314;2023-10-13T05:58:49;36.33;;;10.70;;
3949;SDS011;53057;50.988;6.314;2023-10-13T06:02:12;29.10;;;10.37;;
3949;SDS011;53057;50.988;6.314;2023-10-13T06:06:04;20.13;;;9.90;;
3949;SDS011;53057;50.988;6.314;2023-10-13T06:22:23;30.27;;;9.60;;
3949;SDS011;53057;50.988;6.314;2023-10-13T06:30:02;21.40;;;9.10;;
3949;SDS011;53057;50.988;6.314;2023-10-13T06:33:19;26.70;;;9.80;;
3949;SDS011;53057;50.988;6.314;2023-10-13T06:36:35;28.40;;;10.20;;
3949;SDS011;53057;50.988;6.314;2023-10-13T06:40:08;25.43;;;10.97;;
3949;SDS011;53057;50.988;6.314;2023-10-13T06:43:28;28.30;;;10.20;;
3949;SDS011;53057;50.988;6.314;2023-10-13T06:51:52;19.20;;;8.70;;
3949;SDS011;53057;50.988;6.314;2023-10-13T07:00:19;23.60;;;9.50;;
3949;SDS011;53057;50.988;6.314;2023-10-13T08:19:53;20.60;;;5.93;;
3949;SDS011;53057;50.988;6.314;2023-10-13T08:35:29;19.57;;;6.40;;
3949;SDS011;53057;50.988;6.314;2023-10-13T08:54:50;17.17;;;5.90;;
3949;SDS011;53057;50.988;6.314;2023-10-13T08:57:34;7.43;;;4.47;;
3949;SDS011;53057;50.988;6.314;2023-10-13T09:00:50;9.00;;;4.97;;
3949;SDS011;53057;50.988;6.314;2023-10-13T09:03:54;12.50;;;7.37;;
3949;SDS011;53057;50.988;6.314;2023-10-13T09:06:29;11.20;;;4.00;;
3949;SDS011;53057;50.988;6.314;2023-10-13T09:09:28;15.47;;;5.03;;
3949;SDS011;53057;50.988;6.314;2023-10-13T09:12:27;21.17;;;7.43;;
3949;SDS011;53057;50.988;6.314;2023-10-13T09:15:18;14.83;;;7.47;;
3949;SDS011;53057;50.988;6.314;2023-10-13T09:18:38;17.10;;;7.23;;
3949;SDS011;53057;50.988;6.314;2023-10-13T09:21:25;8.93;;;4.50;;
3949;SDS011;53057;50.988;6.314;2023-10-13T09:24:59;12.03;;;6.17;;
3949;SDS011;53057;50.988;6.314;2023-10-13T09:27:36;10.77;;;6.67;;
3949;SDS011;53057;50.988;6.314;2023-10-13T09:30:22;13.80;;;3.90;;
3949;SDS011;53057;50.988;6.314;2023-10-13T09:33:02;13.40;;;5.70;;
3949;SDS011;53057;50.988;6.314;2023-10-13T09:35:54;29.33;;;5.47;;
3949;SDS011;53057;50.988;6.314;2023-10-13T09:38:56;11.30;;;6.80;;
3949;SDS011;53057;50.988;6.314;2023-10-13T09:41:57;11.70;;;5.57;;
3949;SDS011;53057;50.988;6.314;2023-10-13T09:44:38;14.13;;;7.77;;
3949;SDS011;53057;50.988;6.314;2023-10-13T09:47:30;14.20;;;6.27;;
3949;SDS011;53057;50.988;6.314;2023-10-13T09:58:19;9.13;;;5.97;;
3949;SDS011;53057;50.988;6.314;2023-10-13T10:04:56;9.20;;;7.10;;
3949;SDS011;53057;50.988;6.314;2023-10-13T10:08:09;12.17;;;7.00;;
3949;SDS011;53057;50.988;6.314;2023-10-13T10:10:59;8.60;;;7.20;;
3949;SDS011;53057;50.988;6.314;2023-10-13T10:17:47;11.00;;;7.13;;
3949;SDS011;53057;50.988;6.314;2023-10-13T10:20:51;17.30;;;7.53;;
3949;SDS011;53057;50.988;6.314;2023-10-13T10:24:37;10.60;;;5.47;;
3949;SDS011;53057;50.988;6.314;2023-10-13T10:27:30;8.10;;;3.60;;
3949;SDS011;53057;50.988;6.314;2023-10-13T10:30:23;7.73;;;6.07;;
3949;SDS011;53057;50.988;6.314;2023-10-13T10:33:19;19.10;;;8.07;;
3949;SDS011;53057;50.988;6.314;2023-10-13T10:36:36;10.37;;;6.20;;
3949;SDS011;53057;50.988;6.314;2023-10-13T10:43:03;10.17;;;5.10;;
3949;SDS011;53057;50.988;6.314;2023-10-13T10:46:06;17.80;;;7.67;;
3949;SDS011;53057;50.988;6.314;2023-10-13T10:51:52;8.20;;;4.87;;
3949;SDS011;53057;50.988;6.314;2023-10-13T10:55:01;9.90;;;5.40;;
3949;SDS011;53057;50.988;6.314;2023-10-13T10:57:59;15.00;;;8.80;;
3949;SDS011;53057;50.988;6.314;2023-10-13T11:01:09;21.03;;;7.03;;
3949;SDS011;53057;50.988;6.314;2023-10-13T11:04:09;9.47;;;7.10;;
3949;SDS011;53057;50.988;6.314;2023-10-13T11:06:59;6.50;;;3.60;;
3949;SDS011;53057;50.988;6.314;2023-10-13T11:09:31;17.43;;;5.67;;
3949;SDS011;53057;50.988;6.314;2023-10-13T11:12:27;15.77;;;8.03;;
3949;SDS011;53057;50.988;6.314;2023-10-13T11:15:26;14.37;;;6.40;;
3949;SDS011;53057;50.988;6.314;2023-10-13T11:19:10;15.73;;;6.30;;
3949;SDS011;53057;50.988;6.314;2023-10-13T11:22:24;14.47;;;4.37;;
3949;SDS011;53057;50.988;6.314;2023-10-13T11:26:13;13.37;;;5.70;;
3949;SDS011;53057;50.988;6.314;2023-10-13T11:28:49;11.50;;;5.20;;
3949;SDS011;53057;50.988;6.314;2023-10-13T11:31:33;43.60;;;6.03;;
3949;SDS011;53057;50.988;6.314;2023-10-13T11:34:55;10.37;;;5.50;;
3949;SDS011;53057;50.988;6.314;2023-10-13T11:37:33;21.67;;;7.60;;
3949;SDS011;53057;50.988;6.314;2023-10-13T11:41:05;15.90;;;7.30;;
3949;SDS011;53057;50.988;6.314;2023-10-13T11:48:15;14.57;;;4.67;;
3949;SDS011;53057;50.988;6.314;2023-10-13T11:51:24;21.03;;;7.80;;
3949;SDS011;53057;50.988;6.314;2023-10-13T11:54:46;8.57;;;4.33;;
3949;SDS011;53057;50.988;6.314;2023-10-13T12:01:21;12.53;;;4.23;;
3949;SDS011;53057;50.988;6.314;2023-10-13T12:04:25;11.30;;;4.67;;
3949;SDS011;53057;50.988;6.314;2023-10-13T12:11:18;18.73;;;6.60;;
3949;SDS011;53057;50.988;6.314;2023-10-13T12:15:16;15.03;;;5.30;;
3949;SDS011;53057;50.988;6.314;2023-10-13T12:18:07;17.13;;;5.93;;
3949;SDS011;53057;50.988;6.314;2023-10-13T12:21:10;8.93;;;3.73;;
3949;SDS011;53057;50.988;6.314;2023-10-13T12:24:18;26.37;;;7.73;;
3949;SDS011;53057;50.988;6.314;2023-10-13T12:27:08;19.20;;;6.63;;
3949;SDS011;53057;50.988;6.314;2023-10-13T12:30:27;16.40;;;6.93;;
3949;SDS011;53057;50.988;6.314;2023-10-13T12:33:47;11.93;;;5.17;;
3949;SDS011;53057;50.988;6.314;2023-10-13T12:36:23;22.23;;;4.17;;
3949;SDS011;53057;50.988;6.314;2023-10-13T12:42:40;28.53;;;6.60;;
3949;SDS011;53057;50.988;6.314;2023-10-13T12:45:46;15.60;;;4.90;;
3949;SDS011;53057;50.988;6.314;2023-10-13T12:49:15;18.60;;;6.10;;
3949;SDS011;53057;50.988;6.314;2023-10-13T12:52:31;16.37;;;3.53;;
3949;SDS011;53057;50.988;6.314;2023-10-13T12:55:19;18.57;;;6.93;;
3949;SDS011;53057;50.988;6.314;2023-10-13T13:01:59;13.80;;;3.20;;
3949;SDS011;53057;50.988;6.314;2023-10-13T13:04:33;25.87;;;5.50;;
3949;SDS011;53057;50.988;6.314;2023-10-13T13:10:15;18.67;;;6.90;;
3949;SDS011;53057;50.988;6.314;2023-10-13T13:13:23;13.40;;;5.40;;
3949;SDS011;53057;50.988;6.314;2023-10-13T13:16:24;17.83;;;5.70;;
3949;SDS011;53057;50.988;6.314;2023-10-13T13:19:55;15.43;;;5.27;;
3949;SDS011;53057;50.988;6.314;2023-10-13T13:22:28;17.00;;;4.30;;
3949;SDS011;53057;50.988;6.314;2023-10-13T13:25:04;24.90;;;8.57;;
3949;SDS011;53057;50.988;6.314;2023-10-13T13:27:37;21.30;;;6.80;;
3949;SDS011;53057;50.988;6.314;2023-10-13T13:30:34;21.87;;;4.33;;
3949;SDS011;53057;50.988;6.314;2023-10-13T13:33:10;16.37;;;6.57;;
3949;SDS011;53057;50.988;6.314;2023-10-13T13:36:25;16.67;;;5.53;;
3949;SDS011;53057;50.988;6.314;2023-10-13T13:39:08;16.50;;;5.97;;
3949;SDS011;53057;50.988;6.314;2023-10-13T13:45:22;16.57;;;4.97;;
3949;SDS011;53057;50.988;6.314;2023-10-13T13:48:00;5.20;;;4.17;;
3949;SDS011;53057;50.988;6.314;2023-10-13T13:51:27;12.87;;;5.87;;
3949;SDS011;53057;50.988;6.314;2023-10-13T13:54:05;16.20;;;6.90;;
3949;SDS011;53057;50.988;6.314;2023-10-13T13:56:48;18.20;;;6.13;;
3949;SDS011;53057;50.988;6.314;2023-10-13T13:59:28;18.77;;;6.17;;
3949;SDS011;53057;50.988;6.314;2023-10-13T14:02:56;19.50;;;6.30;;
3949;SDS011;53057;50.988;6.314;2023-10-13T14:09:52;12.37;;;6.90;;
3949;SDS011;53057;50.988;6.314;2023-10-13T14:12:38;19.87;;;6.33;;
3949;SDS011;53057;50.988;6.314;2023-10-13T14:21:42;14.83;;;7.23;;
3949;SDS011;53057;50.988;6.314;2023-10-13T14:24:15;25.30;;;7.20;;
3949;SDS011;53057;50.988;6.314;2023-10-13T14:27:30;15.73;;;6.43;;
3949;SDS011;53057;50.988;6.314;2023-10-13T14:30:18;16.17;;;6.50;;
3949;SDS011;53057;50.988;6.314;2023-10-13T14:33:16;18.67;;;6.30;;
3949;SDS011;53057;50.988;6.314;2023-10-13T14:35:48;14.93;;;4.43;;
3949;SDS011;53057;50.988;6.314;2023-10-13T14:38:29;17.63;;;7.10;;
3949;SDS011;53057;50.988;6.314;2023-10-13T14:44:40;13.07;;;6.73;;
3949;SDS011;53057;50.988;6.314;2023-10-13T14:53:44;12.80;;;5.50;;
3949;SDS011;53057;50.988;6.314;2023-10-13T14:56:27;16.50;;;5.83;;
3949;SDS011;53057;50.988;6.314;2023-10-13T14:59:03;29.67;;;7.83;;
3949;SDS011;53057;50.988;6.314;2023-10-13T15:05:13;17.40;;;5.93;;
3949;SDS011;53057;50.988;6.314;2023-10-13T15:07:51;15.20;;;6.60;;
3949;SDS011;53057;50.988;6.314;2023-10-13T15:10:33;12.07;;;4.70;;
3949;SDS011;53057;50.988;6.314;2023-10-13T15:13:34;14.00;;;6.07;;
3949;SDS011;53057;50.988;6.314;2023-10-13T15:16:21;12.73;;;6.70;;
3949;SDS011;53057;50.988;6.314;2023-10-13T15:28:54;12.40;;;7.60;;
3949;SDS011;53057;50.988;6.314;2023-10-13T15:32:09;5.30;;;2.53;;
3949;SDS011;53057;50.988;6.314;2023-10-13T15:36:06;11.50;;;6.23;;
3949;SDS011;53057;50.988;6.314;2023-10-13T15:49:57;15.30;;;5.90;;
3949;SDS011;53057;50.988;6.314;2023-10-13T15:52:57;16.90;;;7.13;;
3949;SDS011;53057;50.988;6.314;2023-10-13T15:55:29;26.63;;;5.90;;
3949;SDS011;53057;50.988;6.314;2023-10-13T15:58:44;9.40;;;5.20;;
3949;SDS011;53057;50.988;6.314;2023-10-13T16:01:43;13.40;;;5.10;;
3949;SDS011;53057;50.988;6.314;2023-10-13T16:04:53;13.00;;;6.27;;
3949;SDS011;53057;50.988;6.314;2023-10-13T16:08:08;8.07;;;4.40;;
3949;SDS011;53057;50.988;6.314;2023-10-13T16:10:53;27.90;;;5.20;;
3949;SDS011;53057;50.988;6.314;2023-10-13T16:13:34;10.67;;;5.80;;
3949;SDS011;53057;50.988;6.314;2023-10-13T16:17:08;11.80;;;6.03;;
3949;SDS011;53057;50.988;6.314;2023-10-13T16:19:39;8.87;;;4.87;;
3949;SDS011;53057;50.988;6.314;2023-10-13T16:27:12;9.67;;;5.43;;
3949;SDS011;53057;50.988;6.314;2023-10-13T16:33:12;7.77;;;4.80;;
3949;SDS011;53057;50.988;6.314;2023-10-13T16:35:53;26.27;;;6.77;;
3949;SDS011;53057;50.988;6.314;2023-10-13T16:38:31;17.77;;;6.30;;
3949;SDS011;53057;50.988;6.314;2023-10-13T16:41:15;20.77;;;6.53;;
3949;SDS011;53057;50.988;6.314;2023-10-13T16:44:06;7.03;;;4.90;;
3949;SDS011;53057;50.988;6.314;2023-10-13T16:47:13;8.00;;;4.10;;
3949;SDS011;53057;50.988;6.314;2023-10-13T16:49:42;13.97;;;4.83;;
3949;SDS011;53057;50.988;6.314;2023-10-13T16:52:23;7.83;;;5.13;;
3949;SDS011;53057;50.988;6.314;2023-10-13T16:55:14;22.03;;;6.07;;
3949;SDS011;53057;50.988;6.314;2023-10-13T16:58:32;12.70;;;5.60;;
3949;SDS011;53057;50.988;6.314;2023-10-13T17:01:57;7.77;;;5.17;;
3949;SDS011;53057;50.988;6.314;2023-10-13T17:05:29;7.83;;;5.50;;
3949;SDS011;53057;50.988;6.314;2023-10-13T17:08:08;9.83;;;5.87;;
3949;SDS011;53057;50.988;6.314;2023-10-13T17:11:32;17.40;;;4.93;;
3949;SDS011;53057;50.988;6.314;2023-10-13T17:17:22;9.47;;;5.80;;
3949;SDS011;53057;50.988;6.314;2023-10-13T17:23:35;15.93;;;5.77;;
3949;SDS011;53057;50.988;6.314;2023-10-13T17:30:11;11.73;;;5.37;;
3949;SDS011;53057;50.988;6.314;2023-10-13T17:37:06;9.77;;;5.00;;
3949;SDS011;53057;50.988;6.314;2023-10-13T18:00:19;10.53;;;5.07;;
3949;SDS011;53057;50.988;6.314;2023-10-13T18:04:01;20.07;;;6.80;;
3949;SDS011;53057;50.988;6.314;2023-10-13T18:16:52;11.83;;;6.00;;
3949;SDS011;53057;50.988;6.314;2023-10-13T18:20:19;14.60;;;6.03;;
3949;SDS011;53057;50.988;6.314;2023-10-13T18:23:19;11.27;;;5.50;;
3949;SDS011;53057;50.988;6.314;2023-10-13T18:25:46;10.00;;;4.90;;
3949;SDS011;53057;50.988;6.314;2023-10-13T18:28:21;18.40;;;6.23;;
3949;SDS011;53057;50.988;6.314;2023-10-13T18:30:58;16.67;;;6.67;;
3949;SDS011;53057;50.988;6.314;2023-10-13T18:38:48;8.10;;;5.23;;
3949;SDS011;53057;50.988;6.314;2023-10-13T18:42:15;21.33;;;8.03;;
3949;SDS011;53057;50.988;6.314;2023-10-13T18:45:46;22.37;;;7.30;;
3949;SDS011;53057;50.988;6.314;2023-10-13T18:51:43;22.13;;;6.93;;
3949;SDS011;53057;50.988;6.314;2023-10-13T18:54:52;11.13;;;5.80;;
3949;SDS011;53057;50.988;6.314;2023-10-13T19:04:37;27.77;;;6.40;;
3949;SDS011;53057;50.988;6.314;2023-10-13T19:07:31;14.73;;;7.00;;
3949;SDS011;53057;50.988;6.314;2023-10-13T19:14:07;17.73;;;6.23;;
3949;SDS011;53057;50.988;6.314;2023-10-13T19:17:01;11.17;;;6.10;;
3949;SDS011;53057;50.988;6.314;2023-10-13T19:32:39;21.20;;;8.13;;
3949;SDS011;53057;50.988;6.314;2023-10-13T19:35:20;6.40;;;4.90;;
3949;SDS011;53057;50.988;6.314;2023-10-13T19:37:49;28.90;;;9.40;;
3949;SDS011;53057;50.988;6.314;2023-10-13T19:40:18;10.80;;;5.13;;
3949;SDS011;53057;50.988;6.314;2023-10-13T19:43:24;14.40;;;6.30;;
3949;SDS011;53057;50.988;6.314;2023-10-13T19:45:58;18.73;;;7.80;;
3949;SDS011;53057;50.988;6.314;2023-10-13T19:48:33;31.60;;;10.30;;
3949;SDS011;53057;50.988;6.314;2023-10-13T19:51:38;13.90;;;7.27;;
3949;SDS011;53057;50.988;6.314;2023-10-13T19:59:14;14.60;;;8.47;;
3949;SDS011;53057;50.988;6.314;2023-10-13T20:05:10;24.33;;;9.83;;
3949;SDS011;53057;50.988;6.314;2023-10-13T20:08:47;19.03;;;6.60;;
3949;SDS011;53057;50.988;6.314;2023-10-13T20:12:57;10.30;;;6.00;;
3949;SDS011;53057;50.988;6.314;2023-10-13T20:19:35;21.90;;;8.07;;
3949;SDS011;53057;50.988;6.314;2023-10-13T20:31:35;19.10;;;8.67;;
3949;SDS011;53057;50.988;6.314;2023-10-13T20:34:39;12.50;;;6.77;;
3949;SDS011;53057;50.988;6.314;2023-10-13T20:37:55;10.33;;;5.77;;
3949;SDS011;53057;50.988;6.314;2023-10-13T20:41:09;28.13;;;5.70;;
3949;SDS011;53057;50.988;6.314;2023-10-13T20:44:11;12.40;;;6.03;;
3949;SDS011;53057;50.988;6.314;2023-10-13T20:50:43;21.70;;;7.60;;
3949;SDS011;53057;50.988;6.314;2023-10-13T20:58:07;26.97;;;7.33;;
3949;SDS011;53057;50.988;6.314;2023-10-13T21:01:23;18.03;;;7.93;;
3949;SDS011;53057;50.988;6.314;2023-10-13T21:04:42;14.63;;;7.07;;
3949;SDS011;53057;50.988;6.314;2023-10-13T21:11:13;19.60;;;7.10;;
3949;SDS011;53057;50.988;6.314;2023-10-13T21:18:13;18.90;;;6.37;;
3949;SDS011;53057;50.988;6.314;2023-10-13T21:36:25;16.33;;;7.20;;
3949;SDS011;53057;50.988;6.314;2023-10-13T21:42:59;23.33;;;9.33;;
3949;SDS011;53057;50.988;6.314;2023-10-13T21:46:35;17.70;;;9.93;;
3949;SDS011;53057;50.988;6.314;2023-10-13T21:52:28;17.83;;;6.60;;
3949;SDS011;53057;50.988;6.314;2023-10-13T21:55:15;18.23;;;8.57;;
3949;SDS011;53057;50.988;6.314;2023-10-13T21:58:17;14.10;;;7.40;;
3949;SDS011;53057;50.988;6.314;2023-10-13T22:01:02;23.17;;;11.20;;
3949;SDS011;53057;50.988;6.314;2023-10-13T22:03:59;30.17;;;9.87;;
3949;SDS011;53057;50.988;6.314;2023-10-13T22:14:41;17.40;;;7.77;;
3949;SDS011;53057;50.988;6.314;2023-10-13T22:23:58;22.40;;;8.40;;
3949;SDS011;53057;50.988;6.314;2023-10-13T22:26:37;17.70;;;8.43;;
3949;SDS011;53057;50.988;6.314;2023-10-13T22:29:28;17.20;;;9.87;;
3949;SDS011;53057;50.988;6.314;2023-10-13T22:32:06;11.53;;;7.17;;
3949;SDS011;53057;50.988;6.314;2023-10-13T22:35:09;25.33;;;8.80;;
3949;SDS011;53057;50.988;6.314;2023-10-13T22:37:39;23.47;;;12.13;;
3949;SDS011;53057;50.988;6.314;2023-10-13T22:40:09;17.47;;;9.73;;
3949;SDS011;53057;50.988;6.314;2023-10-13T22:42:57;24.07;;;9.37;;
3949;SDS011;53057;50.988;6.314;2023-10-13T22:45:35;16.63;;;7.30;;
3949;SDS011;53057;50.988;6.314;2023-10-13T22:48:18;23.60;;;10.40;;
3949;SDS011;53057;50.988;6.314;2023-10-13T22:51:19;19.07;;;10.47;;
3949;SDS011;53057;50.988;6.314;2023-10-13T22:54:12;16.93;;;9.37;;
3949;SDS011;53057;50.988;6.314;2023-10-13T22:57:05;19.67;;;12.03;;
3949;SDS011;53057;50.988;6.314;2023-10-13T22:59:38;28.00;;;11.40;;
3949;SDS011;53057;50.988;6.314;2023-10-13T23:02:30;25.23;;;11.13;;
3949;SDS011;53057;50.988;6.314;2023-10-13T23:05:35;34.27;;;14.00;;
3949;SDS011;53057;50.988;6.314;2023-10-13T23:08:27;16.67;;;10.03;;
3949;SDS011;53057;50.988;6.314;2023-10-13T23:11:31;19.23;;;10.40;;
3949;SDS011;53057;50.988;6.314;2023-10-13T23:14:15;28.40;;;12.30;;
3949;SDS011;53057;50.988;6.314;2023-10-13T23:16:58;19.70;;;11.20;;
3949;SDS011;53057;50.988;6.314;2023-10-13T23:19:47;17.47;;;11.47;;
3949;SDS011;53057;50.988;6.314;2023-10-13T23:22:38;21.60;;;12.80;;
3949;SDS011;53057;50.988;6.314;2023-10-13T23:25:20;13.83;;;9.80;;
3949;SDS011;53057;50.988;6.314;2023-10-13T23:28:10;19.10;;;11.70;;
3949;SDS011;53057;50.988;6.314;2023-10-13T23:31:12;21.07;;;9.47;;
3949;SDS011;53057;50.988;6.314;2023-10-13T23:33:49;21.87;;;11.20;;
3949;SDS011;53057;50.988;6.314;2023-10-13T23:36:18;15.93;;;8.47;;
3949;SDS011;53057;50.988;6.314;2023-10-13T23:39:17;24.50;;;10.07;;
3949;SDS011;53057;50.988;6.314;2023-10-13T23:42:33;21.07;;;9.17;;
3949;SDS011;53057;50.988;6.314;2023-10-13T23:45:38;21.30;;;11.60;;
3949;SDS011;53057;50.988;6.314;2023-10-13T23:48:11;15.87;;;11.10;;
3949;SDS011;53057;50.988;6.314;2023-10-13T23:51:50;20.03;;;12.40;;
3949;SDS011;53057;50.988;6.314;2023-10-13T23:55:17;17.50;;;9.73;;
3949;SDS011;53057;50.988;6.314;2023-10-13T23:58:17;23.70;;;11.23;;
